createdAt,value
2018-12-18T00:01:33.820Z,4.00
2018-12-18T00:04:01.395Z,3.90
2018-12-18T00:06:28.932Z,3.80
2018-12-18T00:08:56.505Z,3.70
2018-12-18T00:11:24.052Z,3.60
2018-12-18T00:13:52.628Z,3.50
2018-12-18T00:16:20.193Z,3.40
2018-12-18T00:18:47.983Z,3.40
2018-12-18T00:21:15.525Z,3.40
2018-12-18T00:23:44.073Z,3.30
2018-12-18T00:26:11.608Z,3.20
2018-12-18T00:28:39.176Z,3.10
2018-12-18T00:31:06.721Z,3.00
2018-12-18T00:33:34.308Z,3.00
2018-12-18T00:36:01.860Z,2.90
2018-12-18T00:38:29.431Z,2.90
2018-12-18T00:40:57.769Z,2.70
2018-12-18T00:43:25.340Z,2.70
2018-12-18T00:45:52.905Z,2.70
2018-12-18T00:48:20.484Z,2.60
2018-12-18T00:50:48.064Z,2.50
2018-12-18T00:53:15.658Z,2.40
2018-12-18T00:55:43.197Z,2.40
2018-12-18T00:58:10.815Z,2.40
2018-12-18T01:00:38.400Z,2.30
2018-12-18T01:03:05.964Z,2.30
2018-12-18T01:05:33.547Z,2.20
2018-12-18T01:08:01.125Z,2.20
2018-12-18T01:10:28.665Z,2.20
2018-12-18T01:12:56.245Z,2.30
2018-12-18T01:15:24.616Z,2.30
2018-12-18T01:17:52.963Z,2.30
2018-12-18T01:20:20.509Z,2.30
2018-12-18T01:22:48.106Z,2.30
2018-12-18T01:25:16.685Z,2.30
2018-12-18T01:27:44.225Z,2.20
2018-12-18T01:30:13.484Z,2.20
2018-12-18T01:35:14.911Z,2.10
2018-12-18T01:37:42.492Z,2.10
2018-12-18T01:40:10.029Z,2.00
2018-12-18T01:42:37.608Z,1.90
2018-12-18T01:45:05.199Z,1.90
2018-12-18T01:47:32.736Z,1.80
2018-12-18T01:50:00.313Z,1.90
2018-12-18T01:52:27.932Z,1.90
2018-12-18T01:54:55.512Z,1.80
2018-12-18T01:57:23.048Z,1.80
2018-12-18T01:59:50.625Z,1.70
2018-12-18T02:02:18.256Z,1.60
2018-12-18T02:04:46.609Z,1.70
2018-12-18T02:07:14.166Z,1.70
2018-12-18T02:09:41.705Z,1.70
2018-12-18T02:12:09.281Z,1.60
2018-12-18T02:14:36.825Z,1.50
2018-12-18T02:17:04.401Z,1.50
2018-12-18T02:19:33.453Z,1.40
2018-12-18T02:22:01.035Z,1.40
2018-12-18T02:24:28.578Z,1.40
2018-12-18T02:26:56.153Z,1.40
2018-12-18T02:29:23.716Z,1.30
2018-12-18T02:31:51.305Z,1.30
2018-12-18T02:34:18.853Z,1.10
2018-12-18T02:36:47.197Z,1.20
2018-12-18T02:39:14.733Z,1.20
2018-12-18T02:41:42.329Z,1.20
2018-12-18T02:44:09.897Z,1.20
2018-12-18T02:46:38.256Z,1.20
2018-12-18T02:49:05.838Z,1.20
2018-12-18T02:51:33.402Z,1.20
2018-12-18T02:54:00.983Z,1.20
2018-12-18T02:56:28.577Z,1.20
2018-12-18T02:58:56.154Z,1.10
2018-12-18T03:01:23.705Z,1.10
2018-12-18T03:03:51.295Z,1.10
2018-12-18T03:06:18.880Z,1.20
2018-12-18T03:08:46.460Z,1.10
2018-12-18T03:11:14.017Z,1.10
2018-12-18T03:13:41.598Z,1.00
2018-12-18T03:16:09.223Z,1.10
2018-12-18T03:18:36.801Z,1.00
2018-12-18T03:21:04.348Z,1.00
2018-12-18T03:23:31.943Z,0.90
2018-12-18T03:26:00.283Z,0.90
2018-12-18T03:28:27.872Z,0.90
2018-12-18T03:30:57.489Z,1.00
2018-12-18T03:33:23.039Z,0.90
2018-12-18T03:35:50.581Z,1.00
2018-12-18T03:38:18.160Z,0.90
2018-12-18T03:40:45.718Z,1.00
2018-12-18T03:43:13.288Z,0.90
2018-12-18T03:45:40.842Z,1.00
2018-12-18T03:48:08.425Z,0.90
2018-12-18T03:50:35.982Z,0.80
2018-12-18T03:53:03.563Z,0.80
2018-12-18T03:55:31.876Z,0.70
2018-12-18T03:57:59.483Z,0.70
2018-12-18T04:00:27.034Z,0.60
2018-12-18T04:02:54.621Z,0.70
2018-12-18T04:05:22.180Z,0.60
2018-12-18T04:07:49.763Z,0.60
2018-12-18T04:10:17.308Z,0.60
2018-12-18T04:12:44.913Z,0.60
2018-12-18T04:15:12.489Z,0.60
2018-12-18T04:17:40.859Z,0.50
2018-12-18T04:20:09.171Z,0.50
2018-12-18T04:22:36.753Z,0.50
2018-12-18T04:25:04.305Z,0.50
2018-12-18T04:27:31.839Z,0.50
2018-12-18T04:32:44.273Z,0.40
2018-12-18T04:35:12.072Z,0.40
2018-12-18T04:37:39.648Z,0.40
2018-12-18T04:40:07.199Z,0.40
2018-12-18T04:42:35.510Z,0.30
2018-12-18T04:45:03.096Z,0.30
2018-12-18T04:47:30.729Z,0.30
2018-12-18T04:49:58.305Z,0.30
2018-12-18T04:52:25.847Z,0.30
2018-12-18T04:54:53.421Z,0.40
2018-12-18T04:57:20.960Z,0.40
2018-12-18T04:59:48.540Z,0.30
2018-12-18T05:02:16.168Z,0.30
2018-12-18T05:04:49.942Z,0.20
2018-12-18T05:07:11.348Z,0.20
2018-12-18T05:09:38.946Z,0.10
2018-12-18T05:12:06.500Z,0.00
2018-12-18T05:14:34.089Z,0.10
2018-12-18T05:17:01.640Z,0.20
2018-12-18T05:19:29.180Z,0.20
2018-12-18T05:21:56.761Z,0.20
2018-12-18T05:24:24.296Z,0.30
2018-12-18T05:26:51.869Z,0.30
2018-12-18T05:29:19.436Z,0.20
2018-12-18T05:31:46.977Z,0.20
2018-12-18T05:34:14.553Z,0.20
2018-12-18T05:36:42.132Z,0.30
2018-12-18T05:39:09.707Z,0.30
2018-12-18T05:41:37.257Z,0.30
2018-12-18T05:44:04.880Z,0.20
2018-12-18T05:46:32.432Z,0.10
2018-12-18T05:49:00.008Z,0.00
2018-12-18T05:51:27.584Z,0.00
2018-12-18T05:53:55.153Z,0.10
2018-12-18T05:56:22.701Z,0.10
2018-12-18T05:58:50.292Z,0.10
2018-12-18T06:01:17.864Z,0.10
2018-12-18T06:03:46.395Z,0.10
2018-12-18T06:06:13.939Z,0.00
2018-12-18T06:08:41.512Z,0.10
2018-12-18T06:11:09.115Z,0.00
2018-12-18T06:13:36.693Z,0.00
2018-12-18T06:16:04.252Z,0.00
2018-12-18T06:18:31.836Z,0.00
2018-12-18T06:20:59.411Z,-0.10
2018-12-18T06:23:27.756Z,0.00
2018-12-18T06:25:55.295Z,0.00
2018-12-18T06:28:23.832Z,-0.10
2018-12-18T06:30:51.404Z,-0.10
2018-12-18T06:33:18.992Z,-0.10
2018-12-18T06:35:46.529Z,-0.10
2018-12-18T06:38:14.101Z,-0.20
2018-12-18T06:40:41.674Z,-0.10
2018-12-18T06:43:09.216Z,-0.20
2018-12-18T06:45:36.857Z,-0.10
2018-12-18T06:48:04.470Z,0.10
2018-12-18T06:50:32.061Z,0.10
2018-12-18T06:52:59.632Z,0.00
2018-12-18T06:55:27.209Z,0.10
2018-12-18T06:57:54.797Z,0.10
2018-12-18T07:00:22.348Z,0.00
2018-12-18T07:02:49.934Z,-0.10
2018-12-18T07:05:17.526Z,-0.10
2018-12-18T07:07:45.069Z,0.00
2018-12-18T07:10:12.846Z,0.00
2018-12-18T07:12:40.484Z,0.00
2018-12-18T07:15:08.311Z,0.00
2018-12-18T07:17:35.876Z,0.00
2018-12-18T07:20:03.428Z,0.10
2018-12-18T07:22:31.008Z,0.20
2018-12-18T07:24:58.565Z,0.20
2018-12-18T07:27:26.192Z,0.10
2018-12-18T07:29:53.736Z,0.20
2018-12-18T07:32:21.322Z,0.30
2018-12-18T07:34:48.877Z,0.40
2018-12-18T07:37:16.461Z,0.40
2018-12-18T07:39:44.012Z,0.50
2018-12-18T07:42:11.604Z,0.50
2018-12-18T07:44:39.144Z,0.20
2018-12-18T07:47:06.737Z,0.10
2018-12-18T07:49:34.281Z,0.10
2018-12-18T07:52:01.938Z,0.00
2018-12-18T07:54:29.518Z,0.10
2018-12-18T07:56:57.088Z,0.10
2018-12-18T07:59:24.629Z,0.10
2018-12-18T08:01:52.202Z,0.10
2018-12-18T08:04:21.148Z,0.10
2018-12-18T08:06:48.366Z,0.20
2018-12-18T08:09:15.949Z,0.20
2018-12-18T08:11:43.489Z,0.20
2018-12-18T08:14:11.828Z,0.20
2018-12-18T08:16:39.399Z,0.20
2018-12-18T08:19:06.971Z,0.30
2018-12-18T08:21:34.517Z,0.30
2018-12-18T08:24:02.098Z,0.30
2018-12-18T08:26:29.635Z,0.40
2018-12-18T08:28:57.208Z,0.50
2018-12-18T08:31:24.753Z,0.50
2018-12-18T08:33:52.323Z,0.60
2018-12-18T08:36:19.884Z,0.60
2018-12-18T08:38:48.232Z,1.00
2018-12-18T08:41:16.681Z,0.90
2018-12-18T08:43:44.256Z,1.00
2018-12-18T08:46:11.823Z,1.10
2018-12-18T08:48:40.363Z,1.10
2018-12-18T08:51:07.905Z,1.20
2018-12-18T08:53:35.484Z,1.20
2018-12-18T08:56:03.037Z,1.40
2018-12-18T08:58:30.613Z,1.40
2018-12-18T09:00:58.156Z,1.50
2018-12-18T09:03:25.736Z,1.60
2018-12-18T09:05:53.283Z,1.60
2018-12-18T09:08:20.817Z,1.70
2018-12-18T09:10:48.389Z,1.90
2018-12-18T09:13:15.923Z,2.20
2018-12-18T09:15:55.491Z,2.30
2018-12-18T09:18:23.048Z,2.30
2018-12-18T09:20:50.620Z,2.40
2018-12-18T09:23:18.161Z,2.50
2018-12-18T09:25:45.747Z,2.70
2018-12-18T09:28:13.295Z,2.90
2018-12-18T09:30:42.796Z,2.90
2018-12-18T09:33:08.472Z,3.00
2018-12-18T09:35:36.057Z,3.20
2018-12-18T09:38:09.561Z,3.30
2018-12-18T09:40:42.671Z,3.40
2018-12-18T09:43:15.928Z,3.50
2018-12-18T09:45:43.508Z,3.60
2018-12-18T09:48:11.041Z,3.70
2018-12-18T09:50:39.597Z,3.70
2018-12-18T09:53:07.150Z,3.90
2018-12-18T09:55:34.736Z,4.10
2018-12-18T09:58:02.274Z,4.10
2018-12-18T10:00:29.843Z,4.20
2018-12-18T10:02:57.416Z,3.90
2018-12-18T10:05:24.960Z,4.00
2018-12-18T10:07:52.534Z,4.10
2018-12-18T10:10:20.112Z,4.20
2018-12-18T10:12:55.218Z,4.30
2018-12-18T10:15:23.521Z,4.60
2018-12-18T10:17:51.066Z,4.50
2018-12-18T10:20:18.640Z,4.70
2018-12-18T10:22:46.948Z,4.80
2018-12-18T10:25:14.526Z,4.80
2018-12-18T10:27:42.068Z,4.90
2018-12-18T10:30:10.868Z,4.90
2018-12-18T10:32:37.309Z,4.90
2018-12-18T10:35:04.853Z,4.80
2018-12-18T10:37:32.459Z,5.00
2018-12-18T10:39:59.998Z,5.20
2018-12-18T10:42:27.747Z,5.10
2018-12-18T10:44:55.332Z,5.10
2018-12-18T10:47:22.877Z,5.20
2018-12-18T10:49:50.417Z,5.10
2018-12-18T10:52:17.992Z,5.20
2018-12-18T10:54:45.534Z,5.10
2018-12-18T10:57:13.116Z,5.00
2018-12-18T10:59:40.657Z,4.80
2018-12-18T11:02:08.228Z,4.90
2018-12-18T11:04:35.767Z,5.00
2018-12-18T11:07:03.441Z,4.90
2018-12-18T11:09:30.989Z,4.70
2018-12-18T11:11:58.556Z,4.90
2018-12-18T11:14:26.093Z,5.10
2018-12-18T11:16:53.672Z,5.10
2018-12-18T11:19:21.216Z,5.40
2018-12-18T11:21:48.793Z,5.40
2018-12-18T11:24:16.336Z,5.60
2018-12-18T11:26:43.920Z,5.70
2018-12-18T11:29:11.461Z,5.80
2018-12-18T11:31:39.040Z,5.90
2018-12-18T11:34:06.580Z,5.90
2018-12-18T11:36:34.154Z,5.80
2018-12-18T11:39:01.704Z,5.90
2018-12-18T11:41:29.277Z,6.10
2018-12-18T11:43:56.825Z,6.20
2018-12-18T11:46:24.417Z,6.20
2018-12-18T11:48:51.951Z,6.30
2018-12-18T11:51:19.500Z,6.40
2018-12-18T11:53:47.072Z,6.40
2018-12-18T11:56:14.648Z,6.30
2018-12-18T11:58:42.299Z,6.40
2018-12-18T12:01:09.814Z,6.50
2018-12-18T12:03:37.386Z,6.40
2018-12-18T12:06:04.975Z,6.50
2018-12-18T12:08:32.549Z,6.40
2018-12-18T12:11:00.096Z,6.30
2018-12-18T12:13:27.681Z,6.40
2018-12-18T12:15:56.235Z,6.40
2018-12-18T12:18:23.826Z,6.40
2018-12-18T12:20:51.372Z,6.70
2018-12-18T12:23:19.039Z,6.80
2018-12-18T12:25:46.608Z,7.00
2018-12-18T12:28:14.191Z,7.10
2018-12-18T12:30:41.736Z,7.10
2018-12-18T12:33:09.313Z,7.10
2018-12-18T12:35:36.888Z,7.00
2018-12-18T12:38:04.478Z,7.00
2018-12-18T12:40:32.016Z,7.00
2018-12-18T12:42:59.798Z,6.90
2018-12-18T12:45:27.371Z,7.00
2018-12-18T12:47:54.943Z,7.00
2018-12-18T12:50:22.730Z,7.10
2018-12-18T12:52:51.072Z,7.50
2018-12-18T12:55:18.658Z,7.50
2018-12-18T12:57:46.240Z,7.70
2018-12-18T13:00:13.781Z,7.80
2018-12-18T13:02:42.140Z,7.50
2018-12-18T13:05:09.687Z,7.50
2018-12-18T13:07:37.265Z,7.40
2018-12-18T13:10:04.809Z,7.80
2018-12-18T13:12:32.381Z,8.10
2018-12-18T13:15:00.324Z,8.10
2018-12-18T13:17:27.918Z,8.10
2018-12-18T13:19:55.461Z,7.60
2018-12-18T13:22:23.000Z,7.60
2018-12-18T13:24:50.584Z,7.50
2018-12-18T13:27:18.885Z,7.70
2018-12-18T13:29:46.965Z,7.70
2018-12-18T13:32:14.528Z,7.80
2018-12-18T13:34:42.099Z,7.90
2018-12-18T13:37:09.644Z,7.90
2018-12-18T13:39:37.216Z,7.70
2018-12-18T13:42:04.752Z,7.60
2018-12-18T13:44:33.097Z,7.60
2018-12-18T13:47:01.002Z,7.50
2018-12-18T13:49:28.580Z,7.40
2018-12-18T13:51:56.125Z,7.50
2018-12-18T13:54:23.972Z,7.40
2018-12-18T13:56:51.551Z,7.30
2018-12-18T13:59:19.133Z,7.20
2018-12-18T14:01:46.675Z,7.20
2018-12-18T14:04:14.297Z,7.30
2018-12-18T14:06:41.872Z,7.30
2018-12-18T14:09:09.496Z,7.40
2018-12-18T14:11:37.030Z,7.30
2018-12-18T14:14:05.382Z,7.10
2018-12-18T14:16:32.961Z,7.10
2018-12-18T14:19:00.533Z,7.00
2018-12-18T14:21:28.079Z,6.90
2018-12-18T14:23:56.420Z,6.70
2018-12-18T14:26:24.360Z,6.70
2018-12-18T14:28:51.894Z,6.50
2018-12-18T14:31:19.449Z,6.40
2018-12-18T14:33:47.796Z,6.20
2018-12-18T14:36:15.372Z,6.20
2018-12-18T14:38:42.945Z,6.00
2018-12-18T14:41:11.159Z,5.90
2018-12-18T14:43:38.741Z,5.80
2018-12-18T14:46:06.323Z,5.70
2018-12-18T14:48:34.629Z,5.70
2018-12-18T14:51:02.208Z,5.70
2018-12-18T14:53:29.752Z,5.50
2018-12-18T14:55:57.327Z,5.40
2018-12-18T14:58:24.864Z,5.20
2018-12-18T15:00:52.443Z,5.10
2018-12-18T15:03:20.000Z,4.90
2018-12-18T15:05:47.545Z,4.80
2018-12-18T15:08:15.124Z,4.70
2018-12-18T15:10:42.713Z,4.50
2018-12-18T15:13:12.968Z,4.30
2018-12-18T15:15:40.519Z,4.30
2018-12-18T15:18:08.093Z,4.30
2018-12-18T15:20:35.672Z,4.10
2018-12-18T15:23:03.204Z,4.10
2018-12-18T15:25:30.777Z,4.00
2018-12-18T15:27:58.325Z,3.80
2018-12-18T15:30:26.274Z,3.90
2018-12-18T15:32:53.504Z,3.80
2018-12-18T15:35:21.072Z,3.70
2018-12-18T15:37:48.618Z,3.70
2018-12-18T15:40:16.196Z,3.50
2018-12-18T15:42:43.733Z,3.40
2018-12-18T15:45:11.308Z,3.20
2018-12-18T15:47:38.853Z,3.10
2018-12-18T15:50:06.427Z,3.10
2018-12-18T15:52:33.962Z,3.00
2018-12-18T15:55:01.532Z,2.90
2018-12-18T15:57:29.067Z,2.90
2018-12-18T15:59:56.645Z,2.70
2018-12-18T16:02:24.427Z,2.70
2018-12-18T16:04:51.860Z,2.60
2018-12-18T16:07:19.437Z,2.70
2018-12-18T16:09:46.976Z,2.60
2018-12-18T16:12:14.845Z,2.60
2018-12-18T16:14:42.452Z,2.40
2018-12-18T16:17:10.002Z,2.40
2018-12-18T16:19:37.581Z,2.30
2018-12-18T16:22:05.153Z,2.30
2018-12-18T16:24:32.701Z,2.20
2018-12-18T16:27:00.357Z,2.20
2018-12-18T16:29:27.894Z,2.30
2018-12-18T16:31:55.477Z,2.30
2018-12-18T16:34:23.816Z,2.30
2018-12-18T16:36:51.399Z,2.20
2018-12-18T16:39:18.958Z,2.20
2018-12-18T16:41:46.549Z,2.20
2018-12-18T16:44:14.097Z,2.10
2018-12-18T16:46:41.705Z,2.10
2018-12-18T16:49:09.271Z,2.00
2018-12-18T16:51:36.831Z,2.10
2018-12-18T16:54:04.408Z,2.10
2018-12-18T16:56:31.981Z,2.10
2018-12-18T16:58:59.571Z,2.00
2018-12-18T17:01:27.116Z,2.10
2018-12-18T17:03:54.700Z,2.00
2018-12-18T17:06:22.285Z,2.00
2018-12-18T17:08:49.874Z,1.80
2018-12-18T17:11:17.423Z,1.80
2018-12-18T17:13:44.999Z,1.70
2018-12-18T17:16:12.553Z,1.70
2018-12-18T17:18:40.133Z,1.60
2018-12-18T17:21:07.681Z,1.60
2018-12-18T17:23:35.257Z,1.60
2018-12-18T17:26:02.805Z,1.50
2018-12-18T17:28:30.385Z,1.50
2018-12-18T17:30:57.936Z,1.50
2018-12-18T17:33:25.573Z,1.40
2018-12-18T17:35:53.129Z,1.30
2018-12-18T17:38:20.671Z,1.20
2018-12-18T17:40:48.253Z,1.30
2018-12-18T17:43:15.805Z,1.30
2018-12-18T17:45:43.388Z,1.30
2018-12-18T17:48:10.971Z,1.20
2018-12-18T17:50:38.528Z,1.10
2018-12-18T17:53:06.112Z,1.20
2018-12-18T17:55:34.452Z,1.10
2018-12-18T17:58:02.001Z,1.10
2018-12-18T18:00:29.580Z,1.10
2018-12-18T18:02:57.129Z,1.10
2018-12-18T18:05:24.717Z,1.10
2018-12-18T18:07:52.260Z,1.10
2018-12-18T18:10:19.842Z,1.10
2018-12-18T18:12:47.387Z,1.10
2018-12-18T18:15:14.966Z,1.10
2018-12-18T18:17:42.506Z,1.10
2018-12-18T18:20:10.084Z,1.10
2018-12-18T18:22:37.628Z,1.00
2018-12-18T18:25:06.209Z,1.00
2018-12-18T18:27:33.752Z,0.80
2018-12-18T18:30:01.336Z,0.70
2018-12-18T18:32:28.895Z,0.70
2018-12-18T18:34:56.496Z,0.70
2018-12-18T18:37:24.061Z,0.80
2018-12-18T18:39:51.648Z,0.70
2018-12-18T18:42:19.228Z,0.60
2018-12-18T18:44:47.800Z,0.60
2018-12-18T18:47:15.342Z,0.60
2018-12-18T18:49:43.696Z,0.60
2018-12-18T18:52:11.285Z,0.60
2018-12-18T18:54:38.864Z,0.60
2018-12-18T18:57:06.411Z,0.60
2018-12-18T18:59:34.000Z,0.50
2018-12-18T19:02:01.580Z,0.50
2018-12-18T19:04:29.179Z,0.50
2018-12-18T19:06:56.729Z,0.60
2018-12-18T19:09:24.302Z,0.70
2018-12-18T19:11:51.881Z,0.70
2018-12-18T19:14:19.474Z,0.70
2018-12-18T19:16:47.800Z,0.50
2018-12-18T19:19:15.383Z,0.50
2018-12-18T19:21:42.970Z,0.40
2018-12-18T19:24:10.557Z,0.50
2018-12-18T19:26:38.110Z,0.40
2018-12-18T19:29:05.695Z,0.30
2018-12-18T19:31:33.271Z,0.20
2018-12-18T19:34:00.913Z,0.20
2018-12-18T19:36:28.476Z,0.20
2018-12-18T19:38:56.069Z,0.30
2018-12-18T19:41:23.649Z,0.30
2018-12-18T19:43:51.960Z,0.30
2018-12-18T19:46:19.555Z,0.30
2018-12-18T19:48:47.098Z,0.40
2018-12-18T19:51:14.705Z,0.40
2018-12-18T19:53:42.254Z,0.40
2018-12-18T19:56:09.832Z,0.30
2018-12-18T19:58:37.417Z,0.30
2018-12-18T20:01:04.969Z,0.30
2018-12-18T20:03:32.555Z,0.30
2018-12-18T20:06:00.101Z,0.30
2018-12-18T20:08:27.694Z,0.20
2018-12-18T20:10:55.235Z,0.10
2018-12-18T20:13:22.812Z,0.00
2018-12-18T20:15:50.360Z,0.10
2018-12-18T20:18:17.952Z,0.00
2018-12-18T20:20:45.522Z,0.00
2018-12-18T20:23:13.100Z,0.10
2018-12-18T20:25:40.647Z,0.10
2018-12-18T20:28:08.221Z,0.10
2018-12-18T20:30:35.786Z,0.20
2018-12-18T20:33:03.379Z,0.00
2018-12-18T20:35:30.941Z,0.00
2018-12-18T20:37:58.510Z,0.00
2018-12-18T20:40:26.089Z,0.00
2018-12-18T20:42:53.644Z,0.00
2018-12-18T20:45:22.199Z,0.00
2018-12-18T20:47:49.799Z,0.00
2018-12-18T20:50:17.355Z,0.00
2018-12-18T20:52:44.932Z,0.10
2018-12-18T20:55:13.404Z,0.10
2018-12-18T20:57:41.960Z,0.10
2018-12-18T21:00:09.543Z,0.00
2018-12-18T21:02:37.090Z,0.10
2018-12-18T21:05:04.673Z,0.10
2018-12-18T21:07:32.255Z,0.10
2018-12-18T21:10:00.576Z,0.20
2018-12-18T21:12:28.165Z,0.20
2018-12-18T21:15:00.693Z,0.20
2018-12-18T21:17:23.312Z,0.20
2018-12-18T21:19:50.892Z,0.20
2018-12-18T21:22:18.479Z,0.20
2018-12-18T21:24:46.059Z,0.20
2018-12-18T21:27:13.588Z,0.20
2018-12-18T21:29:41.176Z,0.20
2018-12-18T21:32:09.525Z,0.20
2018-12-18T21:34:37.096Z,0.20
2018-12-18T21:37:04.761Z,0.30
2018-12-18T21:39:33.133Z,0.50
2018-12-18T21:42:00.678Z,0.40
2018-12-18T21:44:28.257Z,0.50
2018-12-18T21:46:55.814Z,0.50
2018-12-18T21:49:23.393Z,0.50
2018-12-18T21:51:50.946Z,0.40
2018-12-18T21:54:18.548Z,0.40
2018-12-18T21:56:46.092Z,0.40
2018-12-18T21:59:13.669Z,0.40
2018-12-18T22:01:41.253Z,0.40
2018-12-18T22:04:08.828Z,0.40
2018-12-18T22:06:36.360Z,0.30
2018-12-18T22:09:04.408Z,0.30
2018-12-18T22:11:31.647Z,0.30
2018-12-18T22:13:59.227Z,0.40
2018-12-18T22:16:26.772Z,0.50
2018-12-18T22:18:54.352Z,0.50
2018-12-18T22:21:21.995Z,0.60
2018-12-18T22:23:49.568Z,0.60
2018-12-18T22:26:17.120Z,0.60
2018-12-18T22:28:44.671Z,0.60
2018-12-18T22:31:12.251Z,0.60
2018-12-18T22:33:40.572Z,0.70
2018-12-18T22:36:08.261Z,0.70
2018-12-18T22:38:35.812Z,0.70
2018-12-18T22:41:03.389Z,0.80
2018-12-18T22:43:30.930Z,0.80
2018-12-18T22:45:58.510Z,0.90
2018-12-18T22:48:26.060Z,0.90
2018-12-18T22:50:53.599Z,0.90
2018-12-18T22:53:21.181Z,1.00
2018-12-18T22:55:48.775Z,1.00
2018-12-18T22:58:16.356Z,1.10
2018-12-18T23:01:03.777Z,1.20
2018-12-18T23:03:31.348Z,1.20
2018-12-18T23:05:58.958Z,1.30
2018-12-18T23:08:27.312Z,1.30
2018-12-18T23:10:54.861Z,1.30
2018-12-18T23:13:23.312Z,1.40
2018-12-18T23:15:50.884Z,1.50
2018-12-18T23:18:18.466Z,1.60
2018-12-18T23:20:46.013Z,1.50
2018-12-18T23:23:13.593Z,1.50
2018-12-18T23:25:42.022Z,1.50
2018-12-18T23:28:10.597Z,1.50
2018-12-18T23:30:38.132Z,1.50
2018-12-18T23:33:05.707Z,1.50
2018-12-18T23:35:33.245Z,1.60
2018-12-18T23:38:00.816Z,1.80
2018-12-18T23:40:28.391Z,1.80
2018-12-18T23:42:55.982Z,1.80
2018-12-18T23:45:23.533Z,2.00
2018-12-18T23:47:51.125Z,2.00
2018-12-18T23:50:18.740Z,2.10
2018-12-18T23:52:46.325Z,2.10
2018-12-18T23:55:13.865Z,2.10
2018-12-18T23:57:41.449Z,2.10
